createdAt,value
2019-03-05T00:00:52.055Z,5.43
2019-03-05T00:04:00.021Z,5.37
2019-03-05T00:07:05.329Z,5.28
2019-03-05T00:10:11.686Z,5.20
2019-03-05T00:13:17.078Z,5.02
2019-03-05T00:16:22.507Z,4.96
2019-03-05T00:19:27.816Z,4.92
2019-03-05T00:22:33.143Z,4.87
2019-03-05T00:25:38.541Z,4.88
2019-03-05T00:29:25.717Z,4.82
2019-03-05T00:32:31.072Z,4.87
2019-03-05T00:35:43.385Z,4.86
2019-03-05T00:39:35.171Z,4.87
2019-03-05T00:43:02.637Z,4.83
2019-03-05T00:46:56.146Z,4.87
2019-03-05T00:50:42.093Z,4.84
2019-03-05T00:54:05.489Z,4.92
2019-03-05T00:57:54.681Z,4.93
2019-03-05T01:01:30.081Z,4.96
2019-03-05T01:05:25.870Z,5.00
2019-03-05T01:08:33.165Z,4.90
2019-03-05T01:11:38.597Z,4.97
2019-03-05T01:14:44.191Z,4.93
2019-03-05T01:17:50.467Z,4.96
2019-03-05T01:20:55.716Z,5.01
2019-03-05T01:24:00.999Z,4.95
2019-03-05T01:27:06.432Z,4.92
2019-03-05T01:30:29.489Z,4.91
2019-03-05T01:33:39.505Z,4.87
2019-03-05T01:36:47.802Z,4.89
2019-03-05T01:40:18.021Z,4.90
2019-03-05T01:43:23.294Z,4.94
2019-03-05T01:46:30.259Z,5.00
2019-03-05T01:49:35.476Z,5.02
2019-03-05T01:52:40.766Z,5.00
2019-03-05T01:55:46.034Z,4.98
2019-03-05T01:58:51.360Z,5.17
2019-03-05T02:01:56.626Z,5.19
2019-03-05T02:05:01.866Z,5.20
2019-03-05T02:08:07.115Z,5.20
2019-03-05T02:11:13.468Z,5.25
2019-03-05T02:14:18.711Z,5.27
2019-03-05T02:17:24.951Z,5.32
2019-03-05T02:20:30.289Z,5.33
2019-03-05T02:24:00.789Z,5.26
2019-03-05T02:27:47.771Z,5.26
2019-03-05T02:31:23.124Z,5.31
2019-03-05T02:35:12.400Z,5.32
2019-03-05T02:38:29.554Z,5.34
2019-03-05T02:41:52.908Z,5.46
2019-03-05T02:45:38.942Z,5.39
2019-03-05T02:49:49.725Z,5.45
2019-03-05T02:53:42.036Z,5.49
2019-03-05T02:57:01.320Z,5.49
2019-03-05T03:00:13.034Z,5.57
2019-03-05T03:03:27.053Z,5.54
2019-03-05T03:06:34.511Z,5.46
2019-03-05T03:10:14.006Z,5.46
2019-03-05T03:13:19.339Z,5.28
2019-03-05T03:16:24.642Z,5.24
2019-03-05T03:19:29.926Z,5.18
2019-03-05T03:22:35.213Z,5.20
2019-03-05T03:25:40.473Z,5.15
2019-03-05T03:28:45.681Z,5.23
2019-03-05T03:31:50.975Z,5.23
2019-03-05T03:34:56.550Z,5.21
2019-03-05T03:38:02.006Z,5.22
2019-03-05T03:41:08.480Z,5.35
2019-03-05T03:44:13.781Z,5.32
2019-03-05T03:47:19.024Z,5.36
2019-03-05T03:50:24.458Z,5.45
2019-03-05T03:53:29.874Z,5.45
2019-03-05T03:56:35.101Z,5.43
2019-03-05T03:59:40.362Z,5.49
2019-03-05T04:02:45.706Z,5.47
2019-03-05T04:05:53.162Z,5.50
2019-03-05T04:08:58.514Z,5.54
2019-03-05T04:12:03.785Z,5.55
2019-03-05T04:15:11.802Z,5.60
2019-03-05T04:18:17.067Z,5.59
2019-03-05T04:21:22.326Z,5.54
2019-03-05T04:24:27.595Z,5.55
2019-03-05T04:27:32.904Z,5.52
2019-03-05T04:30:38.247Z,5.47
2019-03-05T04:33:43.554Z,5.57
2019-03-05T04:36:48.845Z,5.57
2019-03-05T04:39:54.059Z,5.59
2019-03-05T04:42:59.446Z,5.59
2019-03-05T04:46:28.235Z,5.55
2019-03-05T04:49:44.096Z,5.52
2019-03-05T04:52:49.374Z,5.51
2019-03-05T04:55:54.645Z,5.51
2019-03-05T04:58:59.921Z,5.46
2019-03-05T05:02:05.491Z,5.36
2019-03-05T05:05:10.755Z,5.28
2019-03-05T05:08:16.042Z,5.30
2019-03-05T05:11:21.439Z,5.21
2019-03-05T05:14:26.764Z,5.03
2019-03-05T05:17:31.999Z,5.01
2019-03-05T05:20:37.255Z,4.94
2019-03-05T05:23:42.505Z,4.95
2019-03-05T05:26:49.313Z,4.93
2019-03-05T05:29:54.609Z,4.87
2019-03-05T05:33:00.775Z,4.84
2019-03-05T05:36:08.325Z,4.89
2019-03-05T05:39:49.390Z,4.81
2019-03-05T05:42:54.680Z,4.82
2019-03-05T05:46:00.025Z,4.75
2019-03-05T05:49:05.363Z,4.82
2019-03-05T05:52:10.730Z,4.73
2019-03-05T05:55:15.971Z,4.71
2019-03-05T05:58:21.215Z,4.69
2019-03-05T06:01:26.466Z,4.72
2019-03-05T06:04:31.703Z,4.68
2019-03-05T06:07:36.977Z,4.65
2019-03-05T06:10:42.280Z,4.71
2019-03-05T06:13:47.559Z,4.75
2019-03-05T06:16:52.939Z,4.82
2019-03-05T06:19:58.172Z,4.78
2019-03-05T06:23:03.472Z,4.86
2019-03-05T06:26:08.933Z,4.83
2019-03-05T06:29:14.175Z,4.80
2019-03-05T06:32:19.431Z,4.91
2019-03-05T06:35:25.763Z,4.87
2019-03-05T06:38:31.021Z,4.94
2019-03-05T06:41:36.361Z,4.89
2019-03-05T06:44:41.700Z,4.91
2019-03-05T06:47:46.929Z,5.04
2019-03-05T06:50:52.190Z,5.07
2019-03-05T06:53:57.519Z,5.04
2019-03-05T06:57:02.745Z,5.02
2019-03-05T07:00:24.154Z,5.05
2019-03-05T07:03:29.477Z,5.17
2019-03-05T07:07:00.338Z,5.10
2019-03-05T07:10:29.230Z,5.23
2019-03-05T07:13:35.644Z,5.34
2019-03-05T07:17:07.957Z,5.41
2019-03-05T07:20:53.099Z,5.43
2019-03-05T07:24:28.053Z,5.35
2019-03-05T07:27:38.394Z,5.45
2019-03-05T07:30:43.703Z,5.38
2019-03-05T07:33:49.025Z,5.36
2019-03-05T07:36:55.253Z,5.48
2019-03-05T07:40:00.485Z,5.42
2019-03-05T07:43:05.793Z,5.39
2019-03-05T07:46:11.097Z,5.48
2019-03-05T07:49:18.848Z,5.47
2019-03-05T07:52:23.498Z,5.57
2019-03-05T07:55:28.762Z,5.63
2019-03-05T07:58:34.164Z,5.80
2019-03-05T08:01:39.449Z,5.85
2019-03-05T08:04:44.889Z,5.85
2019-03-05T08:07:51.624Z,5.94
2019-03-05T08:10:56.874Z,5.87
2019-03-05T08:14:28.733Z,5.72
2019-03-05T08:17:34.010Z,5.72
2019-03-05T08:20:39.328Z,5.56
2019-03-05T08:23:44.564Z,5.66
2019-03-05T08:26:50.783Z,5.68
2019-03-05T08:29:57.613Z,5.87
2019-03-05T08:33:03.094Z,5.87
2019-03-05T08:36:08.460Z,5.96
2019-03-05T08:39:13.829Z,5.94
2019-03-05T08:42:19.113Z,6.07
2019-03-05T08:45:29.253Z,6.21
2019-03-05T08:48:31.407Z,6.13
2019-03-05T08:51:36.708Z,6.08
2019-03-05T08:54:42.094Z,6.13
2019-03-05T08:57:47.354Z,6.11
2019-03-05T09:00:52.619Z,6.24
2019-03-05T09:03:58.037Z,6.30
2019-03-05T09:07:03.305Z,6.40
2019-03-05T09:10:11.627Z,6.42
2019-03-05T09:13:16.879Z,6.44
2019-03-05T09:16:22.164Z,6.50
2019-03-05T09:19:28.463Z,6.48
2019-03-05T09:22:35.262Z,6.76
2019-03-05T09:25:42.759Z,6.87
2019-03-05T09:28:47.993Z,6.80
2019-03-05T09:31:53.313Z,6.97
2019-03-05T09:34:58.597Z,6.70
2019-03-05T09:38:03.937Z,6.61
2019-03-05T09:41:09.247Z,6.64
2019-03-05T09:44:14.590Z,6.71
2019-03-05T09:47:19.820Z,7.09
2019-03-05T09:50:25.115Z,7.25
2019-03-05T09:53:30.463Z,7.30
2019-03-05T09:56:35.728Z,7.29
2019-03-05T09:59:41.012Z,7.44
2019-03-05T10:02:46.279Z,6.98
2019-03-05T10:05:51.502Z,6.85
2019-03-05T10:08:56.757Z,6.80
2019-03-05T10:12:02.023Z,6.35
2019-03-05T10:15:10.092Z,6.46
2019-03-05T10:18:15.358Z,5.93
2019-03-05T10:21:20.583Z,6.14
2019-03-05T10:24:28.623Z,6.54
2019-03-05T10:27:33.933Z,6.33
2019-03-05T10:30:40.458Z,6.43
2019-03-05T10:33:45.702Z,6.13
2019-03-05T10:36:51.197Z,6.23
2019-03-05T10:39:56.433Z,6.48
2019-03-05T10:43:08.373Z,6.55
2019-03-05T10:46:11.060Z,6.81
2019-03-05T10:49:16.337Z,6.68
2019-03-05T10:52:21.558Z,6.45
2019-03-05T10:55:26.815Z,6.70
2019-03-05T10:58:34.148Z,6.93
2019-03-05T11:01:39.222Z,6.85
2019-03-05T11:04:46.203Z,6.88
2019-03-05T11:07:52.532Z,6.49
2019-03-05T11:10:59.500Z,6.86
2019-03-05T11:14:05.048Z,6.69
2019-03-05T11:17:10.470Z,6.81
2019-03-05T11:20:15.852Z,6.96
2019-03-05T11:23:21.207Z,7.10
2019-03-05T11:26:26.502Z,7.23
2019-03-05T11:29:31.853Z,7.37
2019-03-05T11:32:37.158Z,7.24
2019-03-05T11:35:42.495Z,7.18
2019-03-05T11:38:47.872Z,7.15
2019-03-05T11:41:53.164Z,6.99
2019-03-05T11:45:07.093Z,7.10
2019-03-05T11:48:05.596Z,7.28
2019-03-05T11:51:12.077Z,7.72
2019-03-05T11:54:17.332Z,7.57
2019-03-05T11:57:22.624Z,7.62
2019-03-05T12:00:36.622Z,7.59
2019-03-05T12:03:41.994Z,7.64
2019-03-05T12:06:47.319Z,7.91
2019-03-05T12:09:52.566Z,8.04
2019-03-05T12:12:57.849Z,7.86
2019-03-05T12:16:07.717Z,7.81
2019-03-05T12:19:13.033Z,7.71
2019-03-05T12:22:18.262Z,7.68
2019-03-05T12:25:23.827Z,7.31
2019-03-05T12:28:29.361Z,7.62
2019-03-05T12:31:34.642Z,7.86
2019-03-05T12:34:39.998Z,7.72
2019-03-05T12:37:45.247Z,7.63
2019-03-05T12:40:50.613Z,7.76
2019-03-05T12:43:55.908Z,7.54
2019-03-05T12:47:01.221Z,7.20
2019-03-05T12:50:08.502Z,7.23
2019-03-05T12:53:15.930Z,7.30
2019-03-05T12:56:24.151Z,7.34
2019-03-05T12:59:27.665Z,7.31
2019-03-05T13:02:32.966Z,7.50
2019-03-05T13:05:38.185Z,7.67
2019-03-05T13:08:43.471Z,7.88
2019-03-05T13:11:49.972Z,7.70
2019-03-05T13:14:55.699Z,8.14
2019-03-05T13:18:02.780Z,8.41
2019-03-05T13:21:14.107Z,8.51
2019-03-05T13:24:19.439Z,8.23
2019-03-05T13:27:24.740Z,8.06
2019-03-05T13:30:30.117Z,8.07
2019-03-05T13:33:38.074Z,8.20
2019-03-05T13:36:42.528Z,8.37
2019-03-05T13:39:47.953Z,8.18
2019-03-05T13:42:53.462Z,8.22
2019-03-05T13:46:00.139Z,8.32
2019-03-05T13:49:57.620Z,8.33
2019-03-05T13:54:01.139Z,8.38
2019-03-05T13:57:40.294Z,8.27
2019-03-05T14:00:45.608Z,8.33
2019-03-05T14:03:56.422Z,8.28
2019-03-05T14:07:45.338Z,8.29
2019-03-05T14:10:50.866Z,8.24
2019-03-05T14:13:56.702Z,8.27
2019-03-05T14:17:37.454Z,8.22
2019-03-05T14:20:42.807Z,8.33
2019-03-05T14:23:48.171Z,8.31
2019-03-05T14:26:53.514Z,8.44
2019-03-05T14:29:58.742Z,8.33
2019-03-05T14:33:04.120Z,8.08
2019-03-05T14:36:09.397Z,7.92
2019-03-05T14:39:25.931Z,7.89
2019-03-05T14:42:31.848Z,7.84
2019-03-05T14:45:37.718Z,7.94
2019-03-05T14:48:43.004Z,7.85
2019-03-05T14:51:48.302Z,7.88
2019-03-05T14:54:53.736Z,7.89
2019-03-05T14:57:59.223Z,7.90
2019-03-05T15:01:05.722Z,7.85
2019-03-05T15:04:11.006Z,7.81
2019-03-05T15:07:16.314Z,7.82
2019-03-05T15:10:21.708Z,7.82
2019-03-05T15:13:28.617Z,7.91
2019-03-05T15:16:34.034Z,7.88
2019-03-05T15:19:39.329Z,7.77
2019-03-05T15:22:44.686Z,7.79
2019-03-05T15:25:50.104Z,7.82
2019-03-05T15:28:56.685Z,7.76
2019-03-05T15:32:03.398Z,7.77
2019-03-05T15:35:08.976Z,7.70
2019-03-05T15:38:14.402Z,7.63
2019-03-05T15:41:19.763Z,7.69
2019-03-05T15:44:25.181Z,7.60
2019-03-05T15:47:30.537Z,7.52
2019-03-05T15:50:35.943Z,7.43
2019-03-05T15:53:42.538Z,7.56
2019-03-05T15:56:47.887Z,7.50
2019-03-05T15:59:53.246Z,7.40
2019-03-05T16:03:00.409Z,7.27
2019-03-05T16:06:05.761Z,7.33
2019-03-05T16:09:18.412Z,7.41
2019-03-05T16:12:23.881Z,7.31
2019-03-05T16:15:29.535Z,7.13
2019-03-05T16:18:39.148Z,7.18
2019-03-05T16:21:42.895Z,7.13
2019-03-05T16:24:48.348Z,7.30
2019-03-05T16:27:53.712Z,7.33
2019-03-05T16:31:11.537Z,7.27
2019-03-05T16:34:29.420Z,7.25
2019-03-05T16:37:57.739Z,7.22
2019-03-05T16:41:24.142Z,7.00
2019-03-05T16:44:45.351Z,6.93
2019-03-05T16:48:04.233Z,7.05
2019-03-05T16:51:27.893Z,6.97
2019-03-05T16:55:04.633Z,6.73
2019-03-05T16:58:22.721Z,6.78
2019-03-05T17:01:46.946Z,6.65
2019-03-05T17:05:11.187Z,6.51
2019-03-05T17:08:35.760Z,6.54
2019-03-05T17:11:54.549Z,6.36
2019-03-05T17:14:59.868Z,6.16
2019-03-05T17:18:05.745Z,6.33
2019-03-05T17:21:11.017Z,6.12
2019-03-05T17:24:16.829Z,6.24
2019-03-05T17:27:22.216Z,5.93
2019-03-05T17:30:27.578Z,5.93
2019-03-05T17:33:33.890Z,6.04
2019-03-05T17:36:40.175Z,5.99
2019-03-05T17:39:45.551Z,5.89
2019-03-05T17:42:51.120Z,5.75
2019-03-05T17:45:56.399Z,5.53
2019-03-05T17:49:01.665Z,5.53
2019-03-05T17:52:07.064Z,5.65
2019-03-05T17:55:23.879Z,5.55
2019-03-05T17:58:22.535Z,5.63
2019-03-05T18:01:27.850Z,5.46
2019-03-05T18:04:34.178Z,5.32
2019-03-05T18:07:39.663Z,4.90
2019-03-05T18:10:45.165Z,4.72
2019-03-05T18:13:50.635Z,4.80
2019-03-05T18:16:56.050Z,4.54
2019-03-05T18:20:03.037Z,4.74
2019-03-05T18:23:09.904Z,4.52
2019-03-05T18:26:15.271Z,4.48
2019-03-05T18:29:20.845Z,4.37
2019-03-05T18:32:26.469Z,4.45
2019-03-05T18:35:31.729Z,4.37
2019-03-05T18:38:37.036Z,4.51
2019-03-05T18:41:42.435Z,4.39
2019-03-05T18:44:48.132Z,4.22
2019-03-05T18:47:53.515Z,4.36
2019-03-05T18:50:58.917Z,4.21
2019-03-05T18:54:04.275Z,4.18
2019-03-05T18:57:09.633Z,4.28
2019-03-05T19:00:17.921Z,4.12
2019-03-05T19:03:23.211Z,4.09
2019-03-05T19:06:28.707Z,4.24
2019-03-05T19:09:34.221Z,4.05
2019-03-05T19:12:39.612Z,4.08
2019-03-05T19:15:46.003Z,3.77
2019-03-05T19:18:51.399Z,3.65
2019-03-05T19:21:56.755Z,3.72
2019-03-05T19:25:02.102Z,3.40
2019-03-05T19:28:07.587Z,3.45
2019-03-05T19:31:13.087Z,3.65
2019-03-05T19:34:18.547Z,3.63
2019-03-05T19:37:23.875Z,3.77
2019-03-05T19:40:31.443Z,3.56
2019-03-05T19:43:36.871Z,3.50
2019-03-05T19:46:42.202Z,3.25
2019-03-05T19:49:47.610Z,3.21
2019-03-05T19:52:53.110Z,3.14
2019-03-05T19:55:58.444Z,3.31
2019-03-05T19:59:03.800Z,3.26
2019-03-05T20:02:09.120Z,3.32
2019-03-05T20:05:16.275Z,3.11
2019-03-05T20:08:21.959Z,3.19
2019-03-05T20:11:27.331Z,3.15
2019-03-05T20:14:32.652Z,3.00
2019-03-05T20:17:37.988Z,2.95
2019-03-05T20:20:43.302Z,2.94
2019-03-05T20:23:48.535Z,3.02
2019-03-05T20:26:53.924Z,3.16
2019-03-05T20:29:59.255Z,3.06
2019-03-05T20:33:05.807Z,2.94
2019-03-05T20:36:11.286Z,2.81
2019-03-05T20:39:17.110Z,2.67
2019-03-05T20:42:22.564Z,2.66
2019-03-05T20:45:29.476Z,2.45
2019-03-05T20:48:34.860Z,2.60
2019-03-05T20:51:45.755Z,2.87
2019-03-05T20:54:51.253Z,2.89
2019-03-05T20:57:56.889Z,3.10
2019-03-05T21:01:02.310Z,3.42
2019-03-05T21:04:07.729Z,3.62
2019-03-05T21:07:13.217Z,3.97
2019-03-05T21:10:18.652Z,4.10
2019-03-05T21:13:24.026Z,4.41
2019-03-05T21:16:30.520Z,4.15
2019-03-05T21:19:35.827Z,3.83
2019-03-05T21:22:42.106Z,4.05
2019-03-05T21:25:47.410Z,4.17
2019-03-05T21:28:52.701Z,3.93
2019-03-05T21:31:58.046Z,3.83
2019-03-05T21:35:04.396Z,4.05
2019-03-05T21:38:11.100Z,3.98
2019-03-05T21:41:16.588Z,4.04
2019-03-05T21:44:21.973Z,3.75
2019-03-05T21:47:30.199Z,3.63
2019-03-05T21:50:35.556Z,3.47
2019-03-05T21:53:40.958Z,3.61
2019-03-05T21:56:46.271Z,3.71
2019-03-05T21:59:51.769Z,3.33
2019-03-05T22:02:57.855Z,3.44
2019-03-05T22:06:03.088Z,3.55
2019-03-05T22:09:08.374Z,3.73
2019-03-05T22:12:15.225Z,3.56
2019-03-05T22:15:20.786Z,3.63
2019-03-05T22:18:26.127Z,3.77
2019-03-05T22:21:31.486Z,3.61
2019-03-05T22:24:36.826Z,3.71
2019-03-05T22:27:42.149Z,4.03
2019-03-05T22:30:52.485Z,4.20
2019-03-05T22:33:56.579Z,4.13
2019-03-05T22:37:05.147Z,3.89
2019-03-05T22:40:10.765Z,3.71
2019-03-05T22:43:16.212Z,4.04
2019-03-05T22:46:21.688Z,3.99
2019-03-05T22:49:26.975Z,3.98
2019-03-05T22:52:32.289Z,4.21
2019-03-05T22:55:37.639Z,4.16
2019-03-05T22:58:42.886Z,4.19
2019-03-05T23:01:49.154Z,4.20
2019-03-05T23:04:55.475Z,4.20
2019-03-05T23:08:00.866Z,4.08
2019-03-05T23:11:07.783Z,3.97
2019-03-05T23:14:13.349Z,3.89
2019-03-05T23:17:22.788Z,4.06
2019-03-05T23:20:28.265Z,3.77
2019-03-05T23:23:33.816Z,3.56
2019-03-05T23:26:40.104Z,3.82
2019-03-05T23:29:46.904Z,3.80
2019-03-05T23:32:52.543Z,3.72
2019-03-05T23:35:57.835Z,3.85
2019-03-05T23:39:04.834Z,3.99
2019-03-05T23:42:11.750Z,3.90
2019-03-05T23:45:22.245Z,4.06
2019-03-05T23:48:27.516Z,4.20
2019-03-05T23:51:33.119Z,4.04
2019-03-05T23:54:38.405Z,4.08
2019-03-05T23:57:43.688Z,4.20
